Time;durP1;ratioP1;P1;durP2;ratioP2;P2;SDS_P1;SDS_P2;PMS_P1;PMS_P2;Temp;Humidity;BMP_temperature;BMP_pressure;BME280_temperature;BME280_humidity;BME280_pressure;Samples;Min_cycle;Max_cycle;Signal;HPM_P1;HPM_P2
2024/03/17 00:00:50;;;;;;;3.22;2.75;;;;;9.40;99250.00;;;;4935297;29;20059;-71
2024/03/17 00:03:16;;;;;;;3.95;2.65;;;;;9.30;99253.00;;;;4919288;29;20059;-70
2024/03/17 00:05:41;;;;;;;8.75;3.72;;;;;9.10;99248.00;;;;4934805;29;20076;-70
2024/03/17 00:08:08;;;;;;;7.93;3.97;;;;;9.10;99251.00;;;;4933560;29;20048;-70
2024/03/17 00:10:34;;;;;;;6.60;3.88;;;;;9.10;99246.00;;;;4933223;29;20052;-70
2024/03/17 00:13:00;;;;;;;7.43;3.47;;;;;9.10;99240.00;;;;4933215;29;20461;-71
2024/03/17 00:15:26;;;;;;;5.57;3.80;;;;;9.00;99235.00;;;;4933596;29;20546;-72
2024/03/17 00:17:52;;;;;;;7.55;4.07;;;;;9.00;99248.00;;;;4933412;29;20048;-72
2024/03/17 00:20:21;;;;;;;4.18;3.30;;;;;8.90;99243.00;;;;4949075;29;20072;-71
2024/03/17 00:22:48;;;;;;;5.88;3.85;;;;;8.80;99232.00;;;;4939982;29;20106;-71
2024/03/17 00:25:14;;;;;;;3.90;3.13;;;;;8.70;99238.00;;;;4936144;29;20054;-71
2024/03/17 00:27:42;;;;;;;3.60;3.25;;;;;8.70;99233.00;;;;4936338;29;20039;-72
2024/03/17 00:30:15;;;;;;;4.60;3.13;;;;;8.80;99230.00;;;;4936406;29;20040;-71
2024/03/17 00:32:42;;;;;;;5.72;3.60;;;;;8.80;99231.00;;;;4936300;29;20062;-72
2024/03/17 00:35:09;;;;;;;5.00;3.28;;;;;8.90;99237.00;;;;4936489;29;20445;-72
2024/03/17 00:37:36;;;;;;;6.20;3.25;;;;;8.90;99233.00;;;;4952270;29;20040;-72
2024/03/17 00:40:03;;;;;;;4.95;3.17;;;;;8.90;99235.00;;;;4952157;29;20051;-72
2024/03/17 00:42:29;;;;;;;4.20;3.13;;;;;8.80;99227.00;;;;4951733;29;20040;-71
2024/03/17 00:44:55;;;;;;;5.82;3.65;;;;;8.70;99230.00;;;;4951838;28;20548;-71
2024/03/17 00:47:21;;;;;;;6.25;3.88;;;;;8.80;99222.00;;;;4935863;29;20099;-72
2024/03/17 00:49:49;;;;;;;5.40;3.75;;;;;8.80;99217.00;;;;4951983;29;20404;-71
2024/03/17 00:52:16;;;;;;;4.95;3.88;;;;;8.80;99213.00;;;;4935586;29;20048;-71
2024/03/17 00:54:42;;;;;;;5.78;4.05;;;;;8.80;99221.00;;;;4940202;29;20039;-72
2024/03/17 00:57:08;;;;;;;5.57;3.55;;;;;8.90;99219.00;;;;4920032;29;20057;-72
2024/03/17 00:59:33;;;;;;;3.85;3.35;;;;;8.90;99213.00;;;;4952336;29;20059;-72
2024/03/17 01:01:59;;;;;;;5.05;3.55;;;;;8.90;99210.00;;;;4951553;29;20046;-72
2024/03/17 01:04:24;;;;;;;7.82;3.63;;;;;8.80;99216.00;;;;4935707;29;20103;-70
2024/03/17 01:06:50;;;;;;;4.78;3.22;;;;;8.90;99214.00;;;;4951761;29;20047;-71
2024/03/17 01:09:16;;;;;;;5.13;3.40;;;;;9.00;99202.00;;;;4935996;29;20130;-71
2024/03/17 01:11:41;;;;;;;6.63;4.10;;;;;9.10;99207.00;;;;4968086;29;20046;-69
2024/03/17 01:14:07;;;;;;;6.80;4.07;;;;;9.20;99203.00;;;;4975058;28;20048;-70
2024/03/17 01:16:33;;;;;;;5.95;3.88;;;;;9.30;99208.00;;;;4962410;29;20156;-71
2024/03/17 01:18:59;;;;;;;5.82;4.28;;;;;9.40;99199.00;;;;4951821;29;20381;-71
2024/03/17 01:21:25;;;;;;;4.93;3.63;;;;;9.40;99202.00;;;;4935335;29;20043;-71
2024/03/17 01:23:50;;;;;;;4.20;3.45;;;;;9.20;99189.00;;;;4927885;29;20139;-71
2024/03/17 01:26:16;;;;;;;4.78;3.25;;;;;9.10;99197.00;;;;4940276;29;20052;-71
2024/03/17 01:28:42;;;;;;;4.10;3.67;;;;;9.10;99199.00;;;;4931975;29;20045;-68
2024/03/17 01:31:09;;;;;;;5.30;3.53;;;;;9.20;99194.00;;;;4916115;29;20048;-71
2024/03/17 01:33:35;;;;;;;5.22;4.25;;;;;9.30;99198.00;;;;4885066;29;20429;-71
2024/03/17 01:36:00;;;;;;;5.50;3.55;;;;;9.40;99188.00;;;;4900977;29;20044;-71
2024/03/17 01:38:26;;;;;;;4.72;3.50;;;;;9.50;99186.00;;;;4932249;29;20139;-71
2024/03/17 01:40:52;;;;;;;5.72;3.30;;;;;9.50;99178.00;;;;4916492;29;20044;-71
2024/03/17 01:43:18;;;;;;;4.78;3.60;;;;;9.50;99179.00;;;;4916827;29;20044;-71
2024/03/17 01:45:43;;;;;;;5.47;3.80;;;;;9.50;99167.00;;;;4932485;29;20044;-71
2024/03/17 01:48:15;;;;;;;5.78;3.53;;;;;9.50;99174.00;;;;4932441;29;20079;-71
2024/03/17 01:50:41;;;;;;;4.85;3.30;;;;;9.40;99170.00;;;;4932250;29;20040;-71
2024/03/17 01:53:09;;;;;;;4.82;4.18;;;;;9.50;99166.00;;;;4925393;29;20479;-70
2024/03/17 01:55:37;;;;;;;6.60;4.10;;;;;9.50;99157.00;;;;4943464;29;20044;-71
2024/03/17 01:58:07;;;;;;;7.30;4.13;;;;;9.30;99159.00;;;;4950974;28;20040;-71
2024/03/17 02:00:34;;;;;;;6.55;4.20;;;;;9.10;99155.00;;;;4951175;29;20046;-71
2024/03/17 02:03:00;;;;;;;4.38;3.95;;;;;9.00;99152.00;;;;4951252;29;20048;-72
2024/03/17 02:05:26;;;;;;;10.38;3.95;;;;;8.90;99150.00;;;;4951244;29;20105;-72
2024/03/17 02:07:52;;;;;;;4.60;3.45;;;;;9.00;99143.00;;;;4935207;29;20404;-71
2024/03/17 02:10:18;;;;;;;7.35;4.05;;;;;9.10;99144.00;;;;4951136;29;20051;-71
2024/03/17 02:12:43;;;;;;;5.55;3.13;;;;;9.00;99145.00;;;;4951187;29;20044;-70
2024/03/17 02:15:09;;;;;;;6.43;3.35;;;;;9.10;99143.00;;;;4951282;29;20098;-71
2024/03/17 02:17:35;;;;;;;5.13;3.38;;;;;9.10;99138.00;;;;4951221;29;20476;-70
2024/03/17 02:20:01;;;;;;;5.82;4.00;;;;;9.10;99128.00;;;;4953691;29;20481;-72
2024/03/17 02:22:30;;;;;;;5.78;3.70;;;;;9.00;99132.00;;;;4948798;29;20051;-71
2024/03/17 02:24:56;;;;;;;8.15;4.53;;;;;8.90;99132.00;;;;4947692;29;20051;-71
2024/03/17 02:27:21;;;;;;;6.32;3.83;;;;;8.90;99132.00;;;;4919158;29;20527;-70
2024/03/17 02:29:47;;;;;;;6.50;4.30;;;;;9.00;99138.00;;;;4950708;29;20094;-72
2024/03/17 02:32:13;;;;;;;5.05;4.47;;;;;9.00;99138.00;;;;4950449;29;20403;-72
2024/03/17 02:34:39;;;;;;;7.07;4.40;;;;;9.00;99140.00;;;;4950579;29;20047;-71
2024/03/17 02:37:06;;;;;;;6.20;4.10;;;;;8.90;99138.00;;;;4950539;29;20515;-72
2024/03/17 02:39:36;;;;;;;7.15;4.13;;;;;8.90;99142.00;;;;4935083;29;20408;-71
2024/03/17 02:42:04;;;;;;;7.50;3.85;;;;;8.70;99136.00;;;;4934570;29;20091;-70
2024/03/17 02:44:31;;;;;;;7.38;4.20;;;;;8.70;99129.00;;;;4934324;29;20047;-72
2024/03/17 02:46:58;;;;;;;8.30;4.25;;;;;8.60;99129.00;;;;4903030;29;20103;-71
2024/03/17 02:49:27;;;;;;;7.95;4.10;;;;;8.50;99126.00;;;;4950499;29;20567;-71
2024/03/17 02:51:54;;;;;;;5.90;4.35;;;;;8.50;99131.00;;;;4935642;29;20043;-69
2024/03/17 02:54:21;;;;;;;5.40;4.13;;;;;8.60;99129.00;;;;4973662;28;20016;-68
2024/03/17 02:56:50;;;;;;;5.05;3.85;;;;;8.50;99123.00;;;;4969241;28;20059;-69
2024/03/17 02:59:15;;;;;;;7.20;4.18;;;;;8.50;99129.00;;;;4934167;29;20103;-71
2024/03/17 03:01:41;;;;;;;5.13;4.10;;;;;8.50;99128.00;;;;4915158;29;20045;-71
2024/03/17 03:04:07;;;;;;;5.20;4.00;;;;;8.40;99125.00;;;;4930888;29;20127;-71
2024/03/17 03:06:36;;;;;;;5.75;3.97;;;;;8.40;99139.00;;;;4931135;29;20048;-70
2024/03/17 03:09:01;;;;;;;6.22;3.60;;;;;8.40;99131.00;;;;4931871;29;20047;-71
2024/03/17 03:11:27;;;;;;;6.78;4.10;;;;;8.40;99126.00;;;;4934597;29;20044;-71
2024/03/17 03:13:53;;;;;;;6.97;4.45;;;;;8.40;99133.00;;;;4934770;29;20091;-70
2024/03/17 03:16:18;;;;;;;4.50;4.07;;;;;8.30;99131.00;;;;4934860;29;20465;-71
2024/03/17 03:18:44;;;;;;;5.00;3.83;;;;;8.20;99129.00;;;;4934995;29;20100;-71
2024/03/17 03:21:12;;;;;;;5.15;4.20;;;;;8.30;99141.00;;;;4934479;29;20437;-71
2024/03/17 03:23:38;;;;;;;5.65;4.35;;;;;8.20;99137.00;;;;4944559;29;20051;-71
2024/03/17 03:26:04;;;;;;;4.50;3.78;;;;;8.20;99136.00;;;;4934520;29;20040;-71
2024/03/17 03:28:33;;;;;;;5.68;4.05;;;;;8.20;99127.00;;;;4934637;29;20501;-70
2024/03/17 03:30:59;;;;;;;7.65;4.38;;;;;8.20;99130.00;;;;4918598;29;20044;-71
2024/03/17 03:33:25;;;;;;;5.60;4.00;;;;;8.30;99124.00;;;;4902936;29;20099;-71
2024/03/17 03:35:50;;;;;;;6.75;4.15;;;;;8.30;99122.00;;;;4934622;29;20040;-71
2024/03/17 03:38:17;;;;;;;5.85;4.03;;;;;8.20;99121.00;;;;4934281;29;20044;-71
2024/03/17 03:40:43;;;;;;;5.82;3.97;;;;;7.90;99115.00;;;;4902578;29;20067;-71
2024/03/17 03:43:09;;;;;;;6.60;4.38;;;;;7.70;99124.00;;;;4918666;29;20095;-71
2024/03/17 03:45:36;;;;;;;5.70;4.25;;;;;7.70;99121.00;;;;4934221;29;20053;-71
2024/03/17 03:48:02;;;;;;;7.45;3.67;;;;;7.70;99127.00;;;;4934329;29;20107;-71
2024/03/17 03:50:29;;;;;;;7.68;3.53;;;;;7.70;99125.00;;;;4933890;29;20162;-71
2024/03/17 03:52:55;;;;;;;8.48;4.10;;;;;7.70;99119.00;;;;4925861;29;20158;-70
2024/03/17 03:55:20;;;;;;;4.05;3.45;;;;;7.80;99124.00;;;;4945557;29;20053;-71
2024/03/17 03:57:47;;;;;;;6.50;3.58;;;;;7.80;99117.00;;;;4953599;29;20048;-69
2024/03/17 04:00:21;;;;;;;4.63;3.58;;;;;7.60;99101.00;;;;4953646;29;20036;-71
2024/03/17 04:02:52;;;;;;;6.18;4.53;;;;;7.40;99114.00;;;;4953355;29;20401;-70
2024/03/17 04:05:19;;;;;;;4.55;3.35;;;;;7.40;99122.00;;;;4937413;29;20036;-71
2024/03/17 04:07:46;;;;;;;3.63;3.25;;;;;7.30;99121.00;;;;4921409;29;20067;-71
2024/03/17 04:10:13;;;;;;;7.07;3.70;;;;;7.30;99135.00;;;;4952917;29;20205;-67
2024/03/17 04:12:39;;;;;;;3.72;3.13;;;;;7.30;99126.00;;;;4952941;29;20048;-71
2024/03/17 04:15:10;;;;;;;5.65;3.10;;;;;7.10;99135.00;;;;4937254;29;20043;-71
2024/03/17 04:17:37;;;;;;;3.58;2.95;;;;;7.10;99127.00;;;;4937018;29;20118;-70
2024/03/17 04:20:05;;;;;;;8.27;3.50;;;;;7.00;99124.00;;;;4920898;29;20044;-71
2024/03/17 04:22:31;;;;;;;4.63;3.55;;;;;7.10;99111.00;;;;4952638;29;20404;-71
2024/03/17 04:24:57;;;;;;;9.27;4.55;;;;;7.20;99117.00;;;;4943695;29;20044;-71
2024/03/17 04:27:23;;;;;;;3.72;3.28;;;;;7.10;99110.00;;;;4917989;29;20111;-71
2024/03/17 04:29:56;;;;;;;5.43;4.10;;;;;7.00;99107.00;;;;4917572;29;20112;-71
2024/03/17 04:32:23;;;;;;;5.20;3.55;;;;;7.00;99099.00;;;;4901983;29;20099;-71
2024/03/17 04:34:49;;;;;;;4.78;3.33;;;;;6.90;99101.00;;;;4932607;29;20051;-68
2024/03/17 04:37:14;;;;;;;6.63;3.38;;;;;6.90;99106.00;;;;4956781;29;20040;-69
2024/03/17 04:39:44;;;;;;;6.30;3.45;;;;;6.90;99099.00;;;;4949133;29;20052;-70
2024/03/17 04:42:11;;;;;;;5.53;3.08;;;;;7.00;99102.00;;;;4917317;29;20182;-70
2024/03/17 04:44:37;;;;;;;8.15;3.97;;;;;6.90;99101.00;;;;4933268;29;20051;-69
2024/03/17 04:47:06;;;;;;;5.10;3.40;;;;;6.90;99109.00;;;;4932864;29;20044;-69
2024/03/17 04:49:40;;;;;;;5.95;3.47;;;;;7.10;99106.00;;;;4932894;29;20048;-68
2024/03/17 04:52:07;;;;;;;4.03;3.47;;;;;7.10;99108.00;;;;4933782;29;20048;-71
2024/03/17 04:54:33;;;;;;;4.35;3.15;;;;;7.10;99120.00;;;;4935778;29;20043;-71
2024/03/17 04:56:58;;;;;;;6.10;3.97;;;;;7.20;99105.00;;;;4935963;29;20040;-69
2024/03/17 04:59:24;;;;;;;12.70;3.55;;;;;7.20;99113.00;;;;4936126;29;20097;-70
2024/03/17 05:01:51;;;;;;;4.50;3.40;;;;;7.10;99098.00;;;;4951513;29;20051;-70
2024/03/17 05:04:17;;;;;;;6.45;3.45;;;;;6.90;99108.00;;;;4951749;29;20056;-70
2024/03/17 05:06:46;;;;;;;4.57;3.50;;;;;6.80;99102.00;;;;4952035;29;20055;-70
2024/03/17 05:09:13;;;;;;;5.28;3.55;;;;;6.70;99098.00;;;;4919750;29;20059;-71
2024/03/17 05:11:39;;;;;;;6.85;3.80;;;;;6.70;99101.00;;;;4935431;29;20436;-73
2024/03/17 05:14:05;;;;;;;4.47;3.40;;;;;6.70;99097.00;;;;4935542;29;20048;-71
2024/03/17 05:16:31;;;;;;;6.32;3.35;;;;;6.70;99093.00;;;;4951223;29;20040;-70
2024/03/17 05:18:56;;;;;;;5.88;3.60;;;;;6.70;99103.00;;;;4951424;29;20069;-69
2024/03/17 05:21:23;;;;;;;5.47;3.60;;;;;6.70;99093.00;;;;4950921;29;20052;-71
2024/03/17 05:23:49;;;;;;;4.63;3.75;;;;;6.60;99106.00;;;;4951010;29;20044;-70
2024/03/17 05:26:15;;;;;;;4.55;3.55;;;;;6.50;99094.00;;;;4919141;29;20048;-70
2024/03/17 05:28:41;;;;;;;5.38;3.75;;;;;6.40;99100.00;;;;4951074;29;20048;-69
2024/03/17 05:31:06;;;;;;;4.65;3.45;;;;;6.40;99101.00;;;;4950564;29;20048;-71
2024/03/17 05:33:32;;;;;;;5.03;3.50;;;;;6.40;99101.00;;;;4950664;29;20075;-70
2024/03/17 05:35:59;;;;;;;7.13;3.45;;;;;6.40;99103.00;;;;4950973;29;20044;-70
2024/03/17 05:38:26;;;;;;;3.83;3.42;;;;;6.50;99106.00;;;;4935201;29;20043;-69
2024/03/17 05:40:56;;;;;;;4.97;3.40;;;;;6.60;99108.00;;;;4950719;29;20051;-70
2024/03/17 05:43:26;;;;;;;4.72;3.50;;;;;6.60;99108.00;;;;4934906;29;20386;-70
2024/03/17 05:46:02;;;;;;;3.60;3.30;;;;;6.60;99112.00;;;;4934773;29;20039;-71
2024/03/17 05:48:28;;;;;;;6.03;4.40;;;;;6.60;99107.00;;;;4950958;29;20047;-70
2024/03/17 05:50:54;;;;;;;3.45;3.10;;;;;6.70;99111.00;;;;4918925;29;20396;-70
2024/03/17 05:53:21;;;;;;;8.48;3.65;;;;;6.80;99113.00;;;;4931398;29;20040;-70
2024/03/17 05:55:47;;;;;;;4.38;3.30;;;;;6.90;99119.00;;;;4946936;29;20043;-70
2024/03/17 05:58:12;;;;;;;5.38;3.50;;;;;7.00;99115.00;;;;4934578;29;20150;-70
2024/03/17 06:00:39;;;;;;;5.82;3.50;;;;;7.10;99109.00;;;;4950338;29;20095;-70
2024/03/17 06:03:06;;;;;;;6.40;3.88;;;;;6.90;99101.00;;;;4950520;29;20043;-70
2024/03/17 06:05:36;;;;;;;8.05;4.18;;;;;6.60;99106.00;;;;4950541;29;20055;-70
2024/03/17 06:08:04;;;;;;;6.15;4.90;;;;;6.60;99099.00;;;;4934552;29;20039;-69
2024/03/17 06:10:31;;;;;;;8.80;6.45;;;;;6.50;99100.00;;;;4950292;29;20055;-69
2024/03/17 06:12:57;;;;;;;10.15;8.98;;;;;6.50;99099.00;;;;4934573;29;20130;-70
2024/03/17 06:15:23;;;;;;;14.10;12.45;;;;;6.50;99098.00;;;;4935209;29;20103;-70
2024/03/17 06:17:53;;;;;;;10.80;9.57;;;;;6.50;99099.00;;;;4967791;29;20047;-70
2024/03/17 06:20:26;;;;;;;5.85;3.92;;;;;6.60;99112.00;;;;4969760;29;20048;-68
2024/03/17 06:22:53;;;;;;;4.50;3.65;;;;;6.70;99104.00;;;;4942835;29;20055;-71
2024/03/17 06:25:18;;;;;;;5.28;4.00;;;;;6.80;99112.00;;;;4942260;29;20056;-70
2024/03/17 06:27:44;;;;;;;5.28;2.85;;;;;6.80;99109.00;;;;4934811;29;20051;-70
2024/03/17 06:30:16;;;;;;;5.22;2.90;;;;;6.80;99101.00;;;;4934390;29;20490;-71
2024/03/17 06:32:42;;;;;;;3.75;2.80;;;;;6.80;99108.00;;;;4934358;29;20044;-70
2024/03/17 06:35:08;;;;;;;4.18;2.95;;;;;6.90;99108.00;;;;4950388;29;20052;-70
2024/03/17 06:37:35;;;;;;;4.40;2.50;;;;;7.00;99107.00;;;;4934223;29;20420;-71
2024/03/17 06:40:03;;;;;;;3.75;3.13;;;;;7.20;99117.00;;;;4918294;29;20048;-71
2024/03/17 06:42:30;;;;;;;5.57;3.53;;;;;7.10;99115.00;;;;4902088;29;20051;-71
2024/03/17 06:44:55;;;;;;;4.00;3.38;;;;;7.10;99119.00;;;;4949776;29;20050;-70
2024/03/17 06:47:21;;;;;;;6.95;3.70;;;;;7.20;99112.00;;;;4949933;29;20052;-70
2024/03/17 06:49:46;;;;;;;4.57;3.10;;;;;7.10;99108.00;;;;4933929;29;20091;-70
2024/03/17 06:52:12;;;;;;;5.03;3.47;;;;;7.10;99106.00;;;;4949531;29;20054;-71
2024/03/17 06:54:38;;;;;;;4.68;3.90;;;;;7.10;99106.00;;;;4925759;29;20721;-70
2024/03/17 06:57:04;;;;;;;6.13;3.53;;;;;7.10;99107.00;;;;4933923;29;20056;-69
2024/03/17 06:59:33;;;;;;;6.18;3.58;;;;;7.20;99106.00;;;;4950006;29;20091;-69
2024/03/17 07:01:58;;;;;;;5.28;3.80;;;;;7.20;99097.00;;;;4949582;29;20098;-70
2024/03/17 07:04:24;;;;;;;4.30;3.33;;;;;7.30;99089.00;;;;4949623;29;20134;-70
2024/03/17 07:06:50;;;;;;;5.38;3.50;;;;;7.40;99081.00;;;;4918110;29;20079;-70
2024/03/17 07:09:17;;;;;;;6.57;3.70;;;;;7.60;99087.00;;;;4949980;29;20044;-69
2024/03/17 07:11:44;;;;;;;4.38;3.78;;;;;7.70;99087.00;;;;4949884;29;20062;-70
2024/03/17 07:14:09;;;;;;;3.83;3.42;;;;;7.90;99087.00;;;;4949730;29;20048;-70
2024/03/17 07:16:35;;;;;;;6.40;3.78;;;;;8.00;99085.00;;;;4928384;23;20060;-66
2024/03/17 07:19:04;;;;;;;5.25;3.50;;;;;8.10;99090.00;;;;4943577;29;20044;-66
2024/03/17 07:21:31;;;;;;;12.50;9.95;;;;;8.10;99101.00;;;;4932185;29;20047;-67
2024/03/17 07:23:59;;;;;;;5.05;3.75;;;;;8.20;99098.00;;;;4914695;29;20103;-66
2024/03/17 07:26:25;;;;;;;10.88;6.72;;;;;8.40;99091.00;;;;4914619;29;20047;-66
2024/03/17 07:28:50;;;;;;;5.45;3.90;;;;;8.30;99094.00;;;;4914557;29;20087;-66
2024/03/17 07:31:16;;;;;;;3.90;3.28;;;;;8.30;99100.00;;;;4915102;29;20075;-67
2024/03/17 07:33:42;;;;;;;6.30;3.17;;;;;8.20;99108.00;;;;4914521;29;20619;-67
2024/03/17 07:36:08;;;;;;;2.88;2.60;;;;;8.40;99098.00;;;;4914710;29;20520;-66
2024/03/17 07:38:35;;;;;;;5.07;3.20;;;;;8.40;99099.00;;;;4914577;29;20048;-67
2024/03/17 07:41:03;;;;;;;7.47;3.20;;;;;8.40;99101.00;;;;4914196;29;20056;-67
2024/03/17 07:43:30;;;;;;;5.35;3.08;;;;;8.40;99105.00;;;;4914756;29;20067;-68
2024/03/17 07:46:01;;;;;;;4.55;3.50;;;;;8.60;99098.00;;;;4905760;29;20051;-67
2024/03/17 07:48:28;;;;;;;6.43;3.13;;;;;8.60;99110.00;;;;4941246;29;20039;-67
2024/03/17 07:50:56;;;;;;;4.10;3.25;;;;;8.70;99100.00;;;;4917298;29;20404;-66
2024/03/17 07:53:21;;;;;;;4.50;3.42;;;;;8.90;99107.00;;;;4933641;29;20056;-67
2024/03/17 07:55:47;;;;;;;5.72;3.20;;;;;8.90;99111.00;;;;4935285;29;20040;-67
2024/03/17 07:58:12;;;;;;;4.97;3.65;;;;;9.10;99107.00;;;;4921242;29;20044;-66
2024/03/17 08:00:38;;;;;;;5.50;3.20;;;;;9.20;99109.00;;;;4936508;29;20500;-66
2024/03/17 08:03:04;;;;;;;3.40;2.80;;;;;9.40;99109.00;;;;4936691;29;20048;-67
2024/03/17 08:05:30;;;;;;;4.78;3.22;;;;;9.60;99108.00;;;;4921193;29;20051;-65
2024/03/17 08:07:55;;;;;;;4.80;3.10;;;;;9.70;99106.00;;;;4936756;29;20547;-66
2024/03/17 08:10:21;;;;;;;5.43;3.90;;;;;9.80;99104.00;;;;4920791;29;20097;-67
2024/03/17 08:12:47;;;;;;;6.05;3.63;;;;;9.80;99108.00;;;;4936782;29;20086;-66
2024/03/17 08:15:13;;;;;;;4.80;3.28;;;;;10.00;99105.00;;;;4938216;29;20043;-65
2024/03/17 08:17:39;;;;;;;4.93;4.10;;;;;10.20;99103.00;;;;4932660;29;20063;-66
2024/03/17 08:20:05;;;;;;;8.07;5.70;;;;;10.20;99105.00;;;;4936360;29;20037;-65
2024/03/17 08:22:31;;;;;;;6.43;4.40;;;;;10.10;99102.00;;;;4920751;29;20051;-66
2024/03/17 08:24:57;;;;;;;6.57;3.95;;;;;10.10;99088.00;;;;4904617;29;20087;-66
2024/03/17 08:27:22;;;;;;;7.53;4.50;;;;;10.30;99096.00;;;;4936731;29;20070;-66
2024/03/17 08:29:48;;;;;;;6.60;3.92;;;;;10.50;99102.00;;;;4936239;29;20453;-66
2024/03/17 08:32:14;;;;;;;4.72;3.72;;;;;10.50;99100.00;;;;4936635;29;20059;-66
2024/03/17 08:34:40;;;;;;;4.72;3.90;;;;;10.70;99095.00;;;;4936316;29;20047;-67
2024/03/17 08:37:05;;;;;;;5.30;4.25;;;;;10.80;99094.00;;;;4920240;29;20047;-66
2024/03/17 08:39:31;;;;;;;7.15;4.25;;;;;11.10;99085.00;;;;4935926;29;20138;-66
2024/03/17 08:41:57;;;;;;;10.00;7.00;;;;;11.20;99088.00;;;;4935862;29;20500;-66
2024/03/17 08:44:23;;;;;;;4.80;3.95;;;;;11.20;99084.00;;;;4935873;29;20048;-65
2024/03/17 08:46:48;;;;;;;5.30;3.60;;;;;11.20;99089.00;;;;4935587;29;20039;-66
2024/03/17 08:49:14;;;;;;;3.88;3.35;;;;;11.20;99086.00;;;;4912171;29;20138;-63
2024/03/17 08:51:39;;;;;;;3.85;3.20;;;;;11.30;99086.00;;;;4919747;29;20044;-63
2024/03/17 08:54:05;;;;;;;5.95;4.72;;;;;11.50;99083.00;;;;4935651;29;20407;-65
2024/03/17 08:56:31;;;;;;;4.13;3.70;;;;;11.50;99089.00;;;;4920353;29;20056;-67
2024/03/17 08:58:56;;;;;;;4.90;4.28;;;;;11.50;99086.00;;;;4935770;29;20460;-67
2024/03/17 09:01:23;;;;;;;11.02;5.03;;;;;11.70;99081.00;;;;4935566;29;20142;-66
2024/03/17 09:03:52;;;;;;;6.93;5.40;;;;;12.00;99079.00;;;;4920065;29;20051;-67
2024/03/17 09:06:19;;;;;;;7.38;5.22;;;;;12.10;99079.00;;;;4937116;29;20047;-66
2024/03/17 09:08:45;;;;;;;6.28;5.13;;;;;12.10;99075.00;;;;4920950;29;20067;-66
2024/03/17 09:11:14;;;;;;;4.55;3.97;;;;;12.20;99077.00;;;;4935628;29;20055;-69
2024/03/17 09:13:40;;;;;;;5.88;3.65;;;;;12.40;99080.00;;;;4935808;29;20055;-68
2024/03/17 09:16:05;;;;;;;4.80;2.83;;;;;12.50;99085.00;;;;4926844;29;20141;-67
2024/03/17 09:18:32;;;;;;;5.10;3.65;;;;;12.50;99090.00;;;;4932586;29;20059;-66
2024/03/17 09:21:07;;;;;;;3.78;3.10;;;;;12.60;99095.00;;;;4916384;29;20040;-68
2024/03/17 09:23:38;;;;;;;4.88;3.50;;;;;12.70;99084.00;;;;4916829;29;20044;-68
2024/03/17 09:26:08;;;;;;;3.17;2.72;;;;;12.90;99085.00;;;;4900357;29;20095;-67
2024/03/17 09:28:35;;;;;;;5.22;3.45;;;;;13.00;99086.00;;;;4916097;29;20044;-67
2024/03/17 09:31:02;;;;;;;5.90;4.35;;;;;12.90;99088.00;;;;4915915;29;20040;-68
2024/03/17 09:33:29;;;;;;;6.43;5.00;;;;;13.00;99092.00;;;;4900273;29;20523;-67
2024/03/17 09:35:57;;;;;;;5.18;3.72;;;;;13.10;99096.00;;;;4915960;29;20055;-68
2024/03/17 09:38:23;;;;;;;3.75;3.17;;;;;13.10;99084.00;;;;4916008;29;20048;-68
2024/03/17 09:40:57;;;;;;;3.63;3.05;;;;;13.20;99078.00;;;;4900137;29;20051;-67
2024/03/17 09:43:24;;;;;;;4.75;3.20;;;;;13.30;99086.00;;;;4916026;29;20044;-67
2024/03/17 09:45:54;;;;;;;4.70;3.80;;;;;13.40;99095.00;;;;4916469;29;20055;-69
2024/03/17 09:48:20;;;;;;;4.97;3.97;;;;;13.50;99098.00;;;;4915971;29;20402;-68
2024/03/17 09:50:52;;;;;;;6.95;3.72;;;;;13.70;99083.00;;;;4915539;29;20051;-68
2024/03/17 09:53:23;;;;;;;5.70;3.88;;;;;13.90;99087.00;;;;4915786;29;20052;-69
2024/03/17 09:55:50;;;;;;;5.18;3.47;;;;;14.10;99089.00;;;;4915649;29;20044;-70
2024/03/17 09:58:20;;;;;;;3.63;2.83;;;;;14.20;99086.00;;;;4915686;29;20048;-68
2024/03/17 10:00:46;;;;;;;5.35;3.65;;;;;14.50;99096.00;;;;4916047;29;20036;-69
2024/03/17 10:03:32;;;;;;;4.72;3.38;;;;;14.70;99097.00;;;;4915824;29;20044;-69
2024/03/17 10:06:00;;;;;;;6.68;4.30;;;;;14.80;99093.00;;;;4915709;29;20048;-68
2024/03/17 10:08:25;;;;;;;5.55;4.05;;;;;14.90;99099.00;;;;4899898;29;20111;-67
2024/03/17 10:10:54;;;;;;;3.97;3.22;;;;;14.70;99088.00;;;;4915300;29;20119;-66
2024/03/17 10:13:20;;;;;;;4.90;3.17;;;;;14.60;99086.00;;;;4915463;29;20461;-67
2024/03/17 10:15:50;;;;;;;3.40;2.72;;;;;14.80;99089.00;;;;4921225;29;20051;-66
2024/03/17 10:18:25;;;;;;;5.22;3.33;;;;;15.00;99100.00;;;;4933817;29;20062;-67
2024/03/17 10:20:56;;;;;;;5.03;3.50;;;;;15.10;99103.00;;;;4934220;29;20535;-66
2024/03/17 10:23:22;;;;;;;3.47;2.80;;;;;15.10;99095.00;;;;4934541;29;20040;-64
2024/03/17 10:25:48;;;;;;;5.55;3.60;;;;;15.10;99086.00;;;;4934704;29;20040;-66
2024/03/17 10:28:16;;;;;;;3.20;2.90;;;;;15.30;99086.00;;;;4934309;29;20066;-66
2024/03/17 10:30:56;;;;;;;6.45;3.55;;;;;15.40;99077.00;;;;4935010;29;20046;-65
2024/03/17 10:33:26;;;;;;;4.30;3.38;;;;;15.60;99077.00;;;;4919215;29;20061;-67
2024/03/17 10:36:00;;;;;;;4.20;3.70;;;;;15.60;99071.00;;;;4918782;29;20058;-68
2024/03/17 10:38:27;;;;;;;4.50;3.30;;;;;15.60;99066.00;;;;4934302;29;20103;-68
2024/03/17 10:40:53;;;;;;;3.80;2.80;;;;;15.70;99063.00;;;;4917919;29;20040;-66
2024/03/17 10:43:24;;;;;;;5.55;3.55;;;;;15.80;99068.00;;;;4933486;29;20106;-67
2024/03/17 10:45:54;;;;;;;5.78;2.42;;;;;15.90;99068.00;;;;4933546;29;20058;-68
2024/03/17 10:48:23;;;;;;;6.32;3.97;;;;;16.00;99066.00;;;;4933707;29;20145;-68
2024/03/17 10:50:52;;;;;;;5.85;4.07;;;;;16.20;99061.00;;;;4917507;29;20051;-67
2024/03/17 10:53:26;;;;;;;5.47;3.90;;;;;16.20;99062.00;;;;4918203;29;20047;-68
2024/03/17 10:56:07;;;;;;;52.28;37.00;;;;;16.30;99064.00;;;;4933697;29;20055;-68
2024/03/17 10:58:38;;;;;;;5.88;4.43;;;;;16.30;99060.00;;;;4949679;29;20542;-67
2024/03/17 11:01:04;;;;;;;5.20;4.68;;;;;16.30;99050.00;;;;4919973;29;20514;-67
2024/03/17 11:03:34;;;;;;;4.75;4.22;;;;;16.60;99043.00;;;;4933536;29;20099;-66
2024/03/17 11:06:03;;;;;;;4.40;3.28;;;;;16.80;99053.00;;;;4933752;29;20140;-66
2024/03/17 11:08:33;;;;;;;6.18;3.15;;;;;16.90;99047.00;;;;4933523;29;20047;-66
2024/03/17 11:11:00;;;;;;;5.57;3.67;;;;;16.90;99037.00;;;;4917453;29;20138;-65
2024/03/17 11:13:32;;;;;;;5.70;3.88;;;;;16.90;99034.00;;;;4933630;29;20047;-63
2024/03/17 11:15:58;;;;;;;4.95;3.00;;;;;16.80;99039.00;;;;4901821;29;20106;-65
2024/03/17 11:18:24;;;;;;;3.88;3.25;;;;;16.80;99035.00;;;;4913136;29;20493;-66
2024/03/17 11:21:07;;;;;;;4.57;3.13;;;;;16.80;99037.00;;;;4914503;29;20042;-66
2024/03/17 11:23:33;;;;;;;4.25;2.90;;;;;16.80;99035.00;;;;4899005;29;20048;-66
2024/03/17 11:25:59;;;;;;;4.75;2.78;;;;;16.80;99032.00;;;;4914592;29;20487;-65
2024/03/17 11:28:49;;;;;;;3.47;2.90;;;;;16.80;99048.00;;;;4914686;29;20051;-65
2024/03/17 11:31:35;;;;;;;3.97;3.20;;;;;16.80;99042.00;;;;4901457;29;20056;-64
2024/03/17 11:34:07;;;;;;;4.22;2.63;;;;;16.70;99050.00;;;;4918436;29;20059;-63
2024/03/17 11:36:36;;;;;;;3.95;2.72;;;;;16.70;99047.00;;;;4918424;29;20044;-63
2024/03/17 11:39:23;;;;;;;4.35;2.72;;;;;16.70;99049.00;;;;4918131;29;20048;-64
2024/03/17 11:41:50;;;;;;;3.25;2.88;;;;;16.50;99052.00;;;;4902148;29;20044;-65
2024/03/17 11:44:21;;;;;;;5.80;3.45;;;;;16.50;99052.00;;;;4920739;29;20047;-64
2024/03/17 11:46:55;;;;;;;37.55;16.50;;;;;16.60;99050.00;;;;4932191;29;20044;-65
2024/03/17 11:49:24;;;;;;;558.38;241.07;;;;;16.70;99055.00;;;;4921377;29;20039;-65
2024/03/17 11:51:53;;;;;;;55.20;24.83;;;;;16.80;99034.00;;;;4936763;29;20099;-65
2024/03/17 11:54:27;;;;;;;132.60;56.67;;;;;16.90;99041.00;;;;4920765;29;20052;-63
2024/03/17 11:56:54;;;;;;;349.42;156.10;;;;;17.00;99041.00;;;;4936835;29;20058;-63
2024/03/17 11:59:21;;;;;;;675.28;345.60;;;;;17.20;99042.00;;;;4936986;29;20396;-65
2024/03/17 12:01:47;;;;;;;597.83;300.20;;;;;17.30;99031.00;;;;4937140;29;20054;-64
2024/03/17 12:04:14;;;;;;;174.00;75.80;;;;;17.30;99036.00;;;;4952582;29;20452;-64
2024/03/17 12:06:47;;;;;;;76.10;33.90;;;;;17.30;99040.00;;;;4936543;29;20050;-65
2024/03/17 12:09:21;;;;;;;239.68;110.38;;;;;17.40;99037.00;;;;4920496;29;20056;-64
2024/03/17 12:11:52;;;;;;;585.97;346.75;;;;;17.50;99029.00;;;;4920338;29;20044;-63
2024/03/17 12:14:19;;;;;;;465.17;235.48;;;;;17.70;99031.00;;;;4936316;29;20169;-64
2024/03/17 12:16:53;;;;;;;350.23;162.20;;;;;17.70;99027.00;;;;4916966;29;20040;-64
2024/03/17 12:19:19;;;;;;;462.15;217.23;;;;;17.60;99022.00;;;;4928671;29;20044;-64
2024/03/17 12:21:49;;;;;;;195.27;87.22;;;;;17.70;99028.00;;;;4920433;29;20052;-63